ěÝzenÝ letovÚho provozu ╚eskÚ republiky
Letiste: LKBC Aktualizace: 27.02.2020 00:31:27  UTC
 METAR LKBC 27.02. 00:30 RRA
METAR LKBC 270030Z AUTO 25009KT 9999 FEW024 BKN057 01/M02 Q1004=